Terminal Aerodrome Forecast
Issued by NWS

Home | Current Version | Previous Version | Text Only | Print | Product List | Glossary On
Versions: 1 2 3 4 5 6 7 8 9 10 11 12 13 14 15 16 17 18 19 20 21 22 23 24 25 26 27 28 29 30 31 32 33 34 35 36 37 38 39 40 41 42 43 44 45 46 47 48 49 50
589
FTUS45 KBOU 080216 AAB
TAFAPA
TAF AMD
KAPA 080216Z 0802/0824 01006KT P6SM OVC014
      TEMPO 0803/0804 SCT014
     FM080400 VRB06KT P6SM FEW014
     FM080800 17006KT P6SM FEW060
     FM081600 08007KT P6SM FEW050 SCT200
     FM082300 14007KT P6SM SCT080 BKN140=

USA.gov is the U.S. government's official web portal to all federal, state and local government web resources and services.